createdAt,value
2019-06-10T00:02:43.431Z,1.92
2019-06-10T00:05:36.229Z,1.57
2019-06-10T00:08:30.808Z,1.30
2019-06-10T00:11:23.111Z,1.30
2019-06-10T00:14:15.909Z,2.08
2019-06-10T00:17:10.825Z,1.30
2019-06-10T00:20:03.356Z,1.50
2019-06-10T00:22:54.315Z,1.30
2019-06-10T00:25:47.369Z,1.40
2019-06-10T00:28:40.643Z,1.27
2019-06-10T00:31:32.975Z,1.47
2019-06-10T00:34:26.024Z,1.12
2019-06-10T00:37:21.157Z,1.40
2019-06-10T00:40:14.142Z,2.37
2019-06-10T00:43:09.131Z,1.30
2019-06-10T00:46:05.462Z,1.55
2019-06-10T00:48:55.653Z,1.72
2019-06-10T00:51:50.752Z,1.52
2019-06-10T00:54:42.789Z,1.45
2019-06-10T00:57:35.852Z,2.33
2019-06-10T01:00:25.917Z,1.82
2019-06-10T01:03:20.724Z,2.27
2019-06-10T01:06:21.346Z,1.27
2019-06-10T01:09:13.217Z,2.00
2019-06-10T01:12:07.013Z,2.02
2019-06-10T01:15:00.887Z,1.80
2019-06-10T01:17:52.872Z,1.95
2019-06-10T01:20:45.929Z,1.65
2019-06-10T01:23:41.641Z,1.65
2019-06-10T01:26:32.810Z,1.50
2019-06-10T01:29:25.606Z,1.72
2019-06-10T01:32:18.409Z,1.55
2019-06-10T01:35:13.063Z,1.15
2019-06-10T01:38:04.262Z,2.05
2019-06-10T01:40:57.318Z,1.70
2019-06-10T01:43:51.304Z,1.10
2019-06-10T01:46:43.178Z,1.00
2019-06-10T01:49:35.974Z,1.52
2019-06-10T01:52:28.774Z,1.45
2019-06-10T01:55:22.600Z,1.32
2019-06-10T01:58:17.938Z,1.05
2019-06-10T02:01:22.821Z,1.27
2019-06-10T02:04:14.875Z,1.22
2019-06-10T02:07:04.809Z,0.93
2019-06-10T02:09:57.606Z,1.20
2019-06-10T02:12:50.952Z,1.40
2019-06-10T02:15:41.059Z,1.47
2019-06-10T02:18:32.684Z,1.85
2019-06-10T02:21:25.480Z,1.85
2019-06-10T02:24:19.699Z,1.77
2019-06-10T02:27:13.280Z,1.42
2019-06-10T02:30:14.856Z,1.45
2019-06-10T02:32:54.261Z,1.95
2019-06-10T02:35:49.132Z,1.47
2019-06-10T02:38:40.231Z,1.82
2019-06-10T02:41:36.228Z,1.85
2019-06-10T02:44:26.321Z,2.33
2019-06-10T02:47:16.063Z,1.85
2019-06-10T02:50:07.369Z,1.27
2019-06-10T02:52:56.043Z,2.17
2019-06-10T02:55:49.351Z,2.50
2019-06-10T02:58:45.083Z,2.83
2019-06-10T03:01:38.104Z,2.37
2019-06-10T03:04:32.509Z,2.30
2019-06-10T03:07:28.380Z,2.52
2019-06-10T03:10:19.122Z,2.47
2019-06-10T03:13:06.105Z,2.45
2019-06-10T03:16:02.820Z,2.30
2019-06-10T03:18:53.800Z,2.20
2019-06-10T03:21:46.601Z,2.60
2019-06-10T03:24:42.041Z,2.33
2019-06-10T03:27:32.925Z,2.27
2019-06-10T03:30:39.390Z,2.50
2019-06-10T03:33:20.164Z,2.40
2019-06-10T03:36:12.391Z,2.58
2019-06-10T03:39:03.916Z,2.20
2019-06-10T03:41:56.713Z,1.55
2019-06-10T03:44:49.765Z,2.40
2019-06-10T03:47:42.872Z,2.10
2019-06-10T03:50:35.629Z,2.02
2019-06-10T03:53:28.685Z,1.98
2019-06-10T03:56:24.671Z,2.58
2019-06-10T03:59:17.353Z,2.33
2019-06-10T04:02:12.663Z,2.62
2019-06-10T04:05:03.466Z,2.20
2019-06-10T04:07:56.774Z,2.52
2019-06-10T04:10:51.945Z,1.35
2019-06-10T04:13:43.083Z,1.90
2019-06-10T04:16:35.177Z,2.05
2019-06-10T04:19:28.807Z,2.77
2019-06-10T04:22:23.537Z,1.70
2019-06-10T04:25:13.575Z,2.42
2019-06-10T04:28:06.630Z,1.52
2019-06-10T04:30:59.436Z,2.75
2019-06-10T04:33:52.511Z,2.02
2019-06-10T04:36:45.554Z,1.65
2019-06-10T04:39:38.599Z,1.82
2019-06-10T04:42:32.983Z,2.72
2019-06-10T04:45:26.240Z,2.98
2019-06-10T04:48:18.507Z,2.52
2019-06-10T04:51:12.747Z,1.80
2019-06-10T04:54:04.133Z,1.60
2019-06-10T04:56:57.190Z,1.27
2019-06-10T04:59:52.877Z,1.27
2019-06-10T05:02:44.076Z,2.70
2019-06-10T05:05:36.871Z,2.98
2019-06-10T05:08:26.921Z,2.30
2019-06-10T05:11:19.400Z,1.15
2019-06-10T05:14:13.238Z,1.02
2019-06-10T05:17:05.254Z,1.15
2019-06-10T05:19:58.055Z,0.93
2019-06-10T05:22:52.827Z,1.15
2019-06-10T05:25:43.654Z,1.10
2019-06-10T05:28:36.454Z,1.52
2019-06-10T05:31:31.171Z,1.00
2019-06-10T05:34:25.292Z,1.10
2019-06-10T05:37:12.130Z,1.22
2019-06-10T05:40:06.887Z,1.25
2019-06-10T05:42:56.112Z,1.15
2019-06-10T05:45:49.415Z,0.90
2019-06-10T05:48:43.740Z,0.80
2019-06-10T05:51:35.520Z,0.95
2019-06-10T05:54:29.103Z,1.05
2019-06-10T05:57:23.913Z,1.22
2019-06-10T06:00:13.937Z,1.00
2019-06-10T06:03:02.907Z,1.10
2019-06-10T06:05:55.690Z,1.75
2019-06-10T06:08:48.488Z,1.62
2019-06-10T06:11:43.091Z,1.52
2019-06-10T06:14:36.058Z,1.05
2019-06-10T06:17:23.814Z,1.12
2019-06-10T06:20:16.871Z,2.12
2019-06-10T06:23:12.127Z,1.77
2019-06-10T06:25:58.791Z,1.60
2019-06-10T06:28:53.533Z,1.65
2019-06-10T06:31:44.742Z,1.10
2019-06-10T06:34:38.807Z,1.80
2019-06-10T06:37:34.714Z,1.37
2019-06-10T06:40:24.170Z,2.00
2019-06-10T06:43:16.971Z,1.30
2019-06-10T06:46:09.767Z,1.32
2019-06-10T06:49:02.822Z,1.90
2019-06-10T06:51:58.311Z,1.90
2019-06-10T06:54:39.515Z,2.20
2019-06-10T06:57:34.189Z,1.85
2019-06-10T07:00:43.111Z,1.10
2019-06-10T07:03:16.500Z,1.42
2019-06-10T07:06:13.052Z,2.05
2019-06-10T07:09:07.771Z,1.85
2019-06-10T07:11:56.775Z,1.45
2019-06-10T07:14:52.460Z,2.58
2019-06-10T07:17:45.453Z,2.75
2019-06-10T07:20:39.468Z,1.92
2019-06-10T07:23:35.512Z,2.65
2019-06-10T07:26:24.103Z,2.50
2019-06-10T07:29:17.159Z,2.05
2019-06-10T07:32:12.284Z,1.90
2019-06-10T07:35:03.273Z,1.67
2019-06-10T07:37:52.496Z,2.20
2019-06-10T07:40:45.932Z,1.98
2019-06-10T07:43:42.397Z,1.20
2019-06-10T07:46:33.516Z,2.10
2019-06-10T07:49:24.717Z,1.47
2019-06-10T07:52:19.923Z,1.50
2019-06-10T07:55:12.876Z,2.08
2019-06-10T07:58:04.902Z,2.33
2019-06-10T08:00:57.707Z,1.47
2019-06-10T08:03:52.690Z,1.40
2019-06-10T08:06:45.711Z,1.50
2019-06-10T08:09:37.383Z,1.82
2019-06-10T08:12:32.429Z,1.65
2019-06-10T08:15:19.656Z,1.75
2019-06-10T08:18:09.399Z,1.80
2019-06-10T08:21:03.174Z,1.90
2019-06-10T08:23:55.238Z,1.70
2019-06-10T08:26:48.040Z,1.95
2019-06-10T08:29:41.676Z,2.67
2019-06-10T08:32:33.896Z,1.70
2019-06-10T08:35:38.508Z,3.10
2019-06-10T08:38:20.264Z,1.77
2019-06-10T08:41:13.067Z,1.75
2019-06-10T08:44:05.863Z,1.22
2019-06-10T08:46:59.432Z,1.60
2019-06-10T08:49:53.095Z,1.87
2019-06-10T08:52:56.870Z,1.60
2019-06-10T08:55:35.015Z,1.62
2019-06-10T08:58:24.266Z,2.37
2019-06-10T09:01:17.300Z,1.32
2019-06-10T09:04:13.069Z,1.20
2019-06-10T09:07:04.367Z,1.65
2019-06-10T09:09:57.484Z,1.17
2019-06-10T09:12:54.199Z,1.30
2019-06-10T09:15:50.828Z,1.50
2019-06-10T09:18:38.648Z,1.47
2019-06-10T09:21:32.833Z,1.10
2019-06-10T09:24:24.551Z,1.15
2019-06-10T09:28:13.162Z,0.98
2019-06-10T09:31:05.990Z,1.10
2019-06-10T09:34:00.040Z,1.50
2019-06-10T09:36:56.656Z,0.80
2019-06-10T09:39:50.928Z,1.07
2019-06-10T09:42:41.584Z,0.70
2019-06-10T09:45:33.276Z,1.12
2019-06-10T09:48:25.322Z,1.15
2019-06-10T09:51:18.119Z,1.10
2019-06-10T09:54:12.804Z,0.85
2019-06-10T09:57:05.510Z,1.00
2019-06-10T09:59:56.523Z,0.78
2019-06-10T10:02:51.478Z,1.00
2019-06-10T10:05:53.066Z,1.10
2019-06-10T10:08:34.158Z,1.10
2019-06-10T10:11:38.573Z,0.90
2019-06-10T10:14:33.532Z,0.95
2019-06-10T10:17:25.352Z,1.02
2019-06-10T10:20:18.412Z,0.95
2019-06-10T10:23:13.712Z,0.95
2019-06-10T10:26:04.265Z,1.20
2019-06-10T10:28:57.257Z,1.12
2019-06-10T10:31:52.345Z,1.07
2019-06-10T10:34:45.033Z,1.20
2019-06-10T10:37:35.723Z,1.02
2019-06-10T10:40:29.031Z,1.20
2019-06-10T10:43:29.098Z,1.20
2019-06-10T10:46:15.142Z,1.07
2019-06-10T10:49:07.942Z,1.17
2019-06-10T10:52:02.752Z,1.27
2019-06-10T10:54:55.859Z,1.15
2019-06-10T10:57:49.364Z,1.17
2019-06-10T11:00:44.790Z,1.05
2019-06-10T11:03:35.534Z,1.00
2019-06-10T11:06:28.842Z,0.90
2019-06-10T11:09:22.352Z,1.02
2019-06-10T11:12:14.695Z,1.07
2019-06-10T11:15:08.519Z,1.20
2019-06-10T11:18:03.855Z,0.95
2019-06-10T11:20:54.375Z,1.20
2019-06-10T11:23:43.895Z,0.90
2019-06-10T11:26:32.984Z,1.00
2019-06-10T11:29:28.170Z,0.80
2019-06-10T11:32:20.969Z,0.82
2019-06-10T11:35:14.022Z,1.40
2019-06-10T11:38:07.079Z,0.75
2019-06-10T11:41:00.244Z,0.70
2019-06-10T11:43:57.770Z,1.00
2019-06-10T11:46:46.759Z,0.62
2019-06-10T11:49:43.408Z,0.57
2019-06-10T11:52:33.897Z,0.55
2019-06-10T11:55:39.244Z,0.70
2019-06-10T11:58:33.278Z,0.50
2019-06-10T12:01:25.097Z,0.30
2019-06-10T12:04:17.896Z,0.40
2019-06-10T12:07:12.741Z,0.60
2019-06-10T12:10:03.751Z,0.25
2019-06-10T12:13:07.081Z,0.35
2019-06-10T12:16:42.483Z,0.40
2019-06-10T12:18:46.505Z,0.20
2019-06-10T12:21:39.314Z,0.40
2019-06-10T12:24:33.216Z,0.40
2019-06-10T12:27:25.159Z,0.28
2019-06-10T12:30:17.960Z,0.40
2019-06-10T12:33:19.939Z,0.30
2019-06-10T12:36:07.121Z,0.70
2019-06-10T12:39:01.885Z,0.50
2019-06-10T12:41:53.193Z,0.85
2019-06-10T12:44:43.496Z,1.25
2019-06-10T12:47:36.554Z,0.78
2019-06-10T12:50:30.375Z,0.88
2019-06-10T12:53:23.430Z,1.40
2019-06-10T12:56:16.243Z,1.12
2019-06-10T12:59:09.311Z,1.20
2019-06-10T13:02:01.983Z,1.30
2019-06-10T13:04:52.097Z,0.50
2019-06-10T13:07:44.367Z,0.78
2019-06-10T13:10:37.771Z,1.25
2019-06-10T13:13:30.221Z,1.00
2019-06-10T13:16:23.271Z,1.20
2019-06-10T13:19:13.233Z,0.93
2019-06-10T13:22:06.970Z,0.30
2019-06-10T13:24:58.637Z,1.22
2019-06-10T13:27:51.850Z,1.00
2019-06-10T13:30:44.199Z,1.32
2019-06-10T13:33:36.999Z,0.40
2019-06-10T13:36:32.932Z,0.88
2019-06-10T13:39:15.142Z,1.20
2019-06-10T13:42:10.041Z,1.27
2019-06-10T13:45:04.918Z,1.40
2019-06-10T13:47:55.368Z,0.78
2019-06-10T13:50:48.170Z,0.53
2019-06-10T13:53:42.627Z,0.72
2019-06-10T13:56:46.367Z,1.00
2019-06-10T13:59:23.397Z,1.20
2019-06-10T14:02:16.308Z,1.00
2019-06-10T14:05:16.287Z,0.55
2019-06-10T14:08:05.449Z,0.40
2019-06-10T14:10:55.467Z,0.68
2019-06-10T14:13:44.619Z,0.53
2019-06-10T14:16:37.485Z,0.62
2019-06-10T14:19:32.464Z,0.62
2019-06-10T14:22:22.645Z,0.78
2019-06-10T14:25:16.870Z,0.80
2019-06-10T14:28:08.948Z,0.60
2019-06-10T14:30:59.180Z,0.40
2019-06-10T14:33:53.250Z,1.12
2019-06-10T14:36:45.288Z,0.85
2019-06-10T14:39:39.126Z,0.50
2019-06-10T14:42:32.949Z,0.88
2019-06-10T14:45:23.152Z,0.30
2019-06-10T14:48:15.163Z,0.40
2019-06-10T14:51:03.047Z,0.60
2019-06-10T14:53:53.638Z,0.50
2019-06-10T14:56:53.505Z,0.50
2019-06-10T14:59:42.425Z,0.45
2019-06-10T15:02:33.439Z,0.60
2019-06-10T15:05:25.863Z,0.78
2019-06-10T15:08:19.738Z,0.50
2019-06-10T15:11:11.694Z,0.40
2019-06-10T15:14:04.290Z,0.50
2019-06-10T15:16:57.323Z,0.35
2019-06-10T15:19:53.049Z,0.80
2019-06-10T15:22:46.252Z,0.42
2019-06-10T15:25:50.194Z,0.40
2019-06-10T15:28:32.358Z,0.47
2019-06-10T15:31:25.418Z,0.50
2019-06-10T15:34:19.949Z,0.50
2019-06-10T15:37:16.745Z,0.40
2019-06-10T15:40:06.118Z,0.60
2019-06-10T15:43:00.201Z,0.20
2019-06-10T15:46:03.265Z,0.30
2019-06-10T15:48:54.766Z,0.30
2019-06-10T15:51:47.567Z,0.37
2019-06-10T15:54:34.731Z,0.60
2019-06-10T15:57:39.312Z,0.50
2019-06-10T16:00:24.295Z,0.72
2019-06-10T16:03:09.810Z,0.40
2019-06-10T16:06:03.302Z,0.47
2019-06-10T16:08:56.934Z,0.35
2019-06-10T16:11:49.992Z,0.40
2019-06-10T16:14:43.055Z,0.40
2019-06-10T16:17:36.108Z,0.50
2019-06-10T16:20:28.910Z,0.40
2019-06-10T16:23:24.681Z,0.40
2019-06-10T16:26:16.212Z,0.55
2019-06-10T16:29:08.071Z,0.40
2019-06-10T16:32:02.503Z,0.35
2019-06-10T16:34:54.182Z,0.23
2019-06-10T16:37:43.500Z,0.60
2019-06-10T16:40:36.462Z,0.47
2019-06-10T16:43:29.255Z,0.40
2019-06-10T16:46:23.082Z,0.50
2019-06-10T16:49:17.421Z,0.40
2019-06-10T16:52:09.190Z,0.40
2019-06-10T16:55:02.363Z,0.37
2019-06-10T16:57:59.250Z,0.75
2019-06-10T17:00:43.001Z,0.40
2019-06-10T17:03:31.350Z,0.50
2019-06-10T17:06:17.470Z,0.40
2019-06-10T17:09:10.120Z,0.40
2019-06-10T17:12:03.436Z,0.55
2019-06-10T17:14:56.744Z,0.50
2019-06-10T17:17:52.102Z,0.30
2019-06-10T17:20:43.629Z,0.53
2019-06-10T17:23:36.944Z,0.95
2019-06-10T17:26:35.613Z,0.40
2019-06-10T17:29:25.284Z,0.50
2019-06-10T17:32:16.364Z,0.30
2019-06-10T17:35:12.647Z,0.40
2019-06-10T17:38:05.035Z,0.40
2019-06-10T17:40:58.096Z,0.30
2019-06-10T17:43:52.121Z,0.55
2019-06-10T17:46:44.202Z,0.50
2019-06-10T17:49:45.959Z,0.33
2019-06-10T17:52:39.277Z,0.50
2019-06-10T17:55:34.068Z,0.40
2019-06-10T17:58:38.789Z,0.45
2019-06-10T18:01:22.525Z,0.62
2019-06-10T18:04:14.311Z,0.60
2019-06-10T18:07:07.366Z,0.40
2019-06-10T18:10:02.722Z,0.57
2019-06-10T18:12:54.246Z,0.53
2019-06-10T18:15:47.825Z,0.50
2019-06-10T18:18:42.575Z,0.50
2019-06-10T18:21:36.383Z,0.42
2019-06-10T18:24:29.260Z,0.60
2019-06-10T18:27:34.124Z,0.42
2019-06-10T18:30:27.215Z,0.70
2019-06-10T18:33:22.739Z,0.50
2019-06-10T18:36:13.303Z,0.40
2019-06-10T18:39:06.603Z,0.60
2019-06-10T18:41:55.914Z,0.70
2019-06-10T18:44:49.382Z,0.57
2019-06-10T18:47:38.792Z,0.42
2019-06-10T18:50:33.367Z,0.50
2019-06-10T18:53:23.567Z,0.62
2019-06-10T18:56:15.209Z,0.47
2019-06-10T18:59:16.546Z,0.55
2019-06-10T19:01:57.990Z,0.40
2019-06-10T19:04:54.371Z,0.60
2019-06-10T19:07:46.782Z,0.40
2019-06-10T19:10:39.007Z,0.40
2019-06-10T19:13:33.959Z,0.60
2019-06-10T19:16:26.088Z,0.68
2019-06-10T19:19:19.160Z,0.50
2019-06-10T19:22:09.578Z,0.50
2019-06-10T19:25:03.635Z,0.60
2019-06-10T19:27:55.500Z,0.50
2019-06-10T19:30:48.808Z,0.70
2019-06-10T19:33:45.211Z,0.75
2019-06-10T19:36:35.692Z,0.50
2019-06-10T19:39:33.215Z,0.60
2019-06-10T19:42:23.854Z,0.70
2019-06-10T19:45:18.182Z,0.55
2019-06-10T19:48:12.439Z,0.60
2019-06-10T19:51:04.297Z,0.60
2019-06-10T19:53:57.353Z,0.53
2019-06-10T19:56:52.404Z,0.62
2019-06-10T20:00:03.750Z,0.50
2019-06-10T20:02:38.056Z,0.50
2019-06-10T20:05:27.532Z,0.75
2019-06-10T20:08:22.698Z,0.70
2019-06-10T20:11:13.896Z,0.70
2019-06-10T20:14:07.213Z,0.60
2019-06-10T20:17:02.932Z,0.80
2019-06-10T20:19:53.329Z,0.80
2019-06-10T20:22:47.045Z,0.75
2019-06-10T20:25:36.284Z,0.68
2019-06-10T20:28:28.391Z,0.78
2019-06-10T20:31:22.226Z,0.60
2019-06-10T20:34:14.760Z,0.82
2019-06-10T20:37:04.759Z,0.60
2019-06-10T20:39:57.035Z,0.80
2019-06-10T20:42:49.836Z,0.80
2019-06-10T20:45:46.188Z,0.62
2019-06-10T20:48:36.463Z,0.82
2019-06-10T20:51:33.722Z,1.05
2019-06-10T20:54:19.239Z,0.68
2019-06-10T20:57:12.195Z,0.70
2019-06-10T21:00:18.522Z,0.70
2019-06-10T21:02:58.664Z,1.02
2019-06-10T21:05:53.534Z,1.15
2019-06-10T21:08:46.814Z,0.82
2019-06-10T21:11:37.830Z,0.98
2019-06-10T21:14:33.092Z,0.82
2019-06-10T21:17:24.715Z,1.10
2019-06-10T21:20:17.765Z,0.70
2019-06-10T21:23:15.410Z,0.82
2019-06-10T21:26:03.877Z,1.20
2019-06-10T21:28:55.043Z,0.85
2019-06-10T21:31:48.496Z,1.15
2019-06-10T21:34:38.699Z,1.20
2019-06-10T21:37:31.987Z,0.95
2019-06-10T21:40:25.575Z,1.17
2019-06-10T21:43:18.375Z,1.07
2019-06-10T21:46:13.160Z,1.22
2019-06-10T21:49:04.231Z,1.27
2019-06-10T21:51:57.372Z,1.70
2019-06-10T21:54:50.693Z,1.20
2019-06-10T21:57:44.554Z,1.20
2019-06-10T22:00:33.103Z,1.40
2019-06-10T22:03:26.183Z,1.05
2019-06-10T22:06:18.985Z,1.20
2019-06-10T22:09:12.464Z,1.05
2019-06-10T22:12:04.841Z,1.10
2019-06-10T22:14:57.895Z,1.10
2019-06-10T22:17:52.964Z,1.20
2019-06-10T22:20:42.982Z,1.20
2019-06-10T22:23:34.249Z,1.17
2019-06-10T22:26:27.049Z,1.00
2019-06-10T22:29:19.845Z,1.15
2019-06-10T22:32:13.009Z,1.00
2019-06-10T22:35:05.703Z,1.10
2019-06-10T22:37:58.505Z,1.12
2019-06-10T22:40:53.625Z,1.50
2019-06-10T22:43:44.359Z,0.72
2019-06-10T22:46:37.157Z,1.20
2019-06-10T22:49:29.963Z,1.40
2019-06-10T22:52:23.079Z,1.50
2019-06-10T22:55:15.565Z,1.42
2019-06-10T22:58:08.871Z,1.00
2019-06-10T23:01:04.026Z,1.37
2019-06-10T23:03:54.471Z,1.32
2019-06-10T23:06:48.195Z,1.20
2019-06-10T23:09:42.691Z,0.90
2019-06-10T23:12:33.384Z,1.27
2019-06-10T23:15:26.186Z,1.42
2019-06-10T23:18:13.958Z,1.50
2019-06-10T23:21:07.177Z,1.25
2019-06-10T23:24:00.737Z,1.37
2019-06-10T23:26:53.768Z,1.20
2019-06-10T23:29:45.573Z,1.27
2019-06-10T23:32:38.647Z,1.45
2019-06-10T23:35:32.290Z,1.20
2019-06-10T23:38:18.606Z,1.60
2019-06-10T23:41:13.027Z,1.77
2019-06-10T23:44:04.230Z,1.45
2019-06-10T23:46:55.238Z,1.45
2019-06-10T23:49:47.761Z,0.90
2019-06-10T23:52:40.552Z,1.10
2019-06-10T23:55:33.350Z,0.93
2019-06-10T23:58:55.561Z,1.47
